Aviation Digital Data Service (ADDS)

Output produced by METARs form (2244 UTC 28 November 2014)
found at http://aviationweather.gov/adds/metars/
 
KCAR 282138Z 2822/2918 33004KT P6SM VCSH SCT015 OVC025 
     TEMPO 2822/2824 5SM -SHSN 
     FM290000 33004KT P6SM BKN035 
     FM290900 VRB03KT P6SM SKC